createdAt,value
2023-01-19T00:02:06.813Z,100089.22
2023-01-19T00:04:33.147Z,100082.78
2023-01-19T00:06:59.544Z,100089.44
2023-01-19T00:09:25.887Z,100081.44
2023-01-19T00:11:52.223Z,100087.47
2023-01-19T00:14:18.525Z,100085.84
2023-01-19T00:16:44.869Z,100084.91
2023-01-19T00:19:11.246Z,100084.16
2023-01-19T00:21:37.576Z,100078.69
2023-01-19T00:24:04.091Z,100080.31
2023-01-19T00:26:30.504Z,100076.53
2023-01-19T00:28:56.868Z,100077.63
2023-01-19T00:31:23.291Z,100081.88
2023-01-19T00:33:50.146Z,100080.56
2023-01-19T00:36:16.466Z,100084.50
2023-01-19T00:38:42.790Z,100090.47
2023-01-19T00:41:09.126Z,100107.00
2023-01-19T00:43:35.413Z,100093.97
2023-01-19T00:46:02.090Z,100095.81
2023-01-19T00:48:28.517Z,100097.78
2023-01-19T00:50:54.935Z,100096.31
2023-01-19T00:53:21.295Z,100094.38
2023-01-19T00:55:47.673Z,100079.59
2023-01-19T00:58:14.268Z,100092.16
2023-01-19T01:00:40.733Z,100092.16
2023-01-19T01:03:07.370Z,100093.88
2023-01-19T01:05:33.875Z,100092.69
2023-01-19T01:08:00.357Z,100084.72
2023-01-19T01:10:28.786Z,100085.22
2023-01-19T01:12:57.472Z,100086.94
2023-01-19T01:15:27.581Z,100083.41
2023-01-19T01:17:54.271Z,100094.09
2023-01-19T01:20:24.078Z,100087.28
2023-01-19T01:22:52.211Z,100088.47
2023-01-19T01:25:20.433Z,100092.91
2023-01-19T01:27:46.770Z,100109.06
2023-01-19T01:30:14.774Z,100097.53
2023-01-19T01:32:41.939Z,100094.31
2023-01-19T01:35:09.873Z,100097.63
2023-01-19T01:37:37.489Z,100104.59
2023-01-19T01:40:06.157Z,100107.88
2023-01-19T01:42:34.181Z,100106.56
2023-01-19T01:45:03.701Z,100115.78
2023-01-19T01:47:41.625Z,100111.06
2023-01-19T01:50:14.901Z,100106.69
2023-01-19T01:53:13.412Z,100105.09
2023-01-19T01:55:48.185Z,100101.44
2023-01-19T01:58:15.953Z,100112.47
2023-01-19T02:00:42.347Z,100110.97
2023-01-19T02:03:10.985Z,100112.25
2023-01-19T02:05:37.546Z,100102.78
2023-01-19T02:08:18.783Z,100114.28
2023-01-19T02:10:46.477Z,100119.97
2023-01-19T02:13:13.535Z,100113.66
2023-01-19T02:15:39.892Z,100112.91
2023-01-19T02:18:06.281Z,100122.06
2023-01-19T02:20:35.952Z,100113.50
2023-01-19T02:23:10.690Z,100119.50
2023-01-19T02:25:37.247Z,100117.00
2023-01-19T02:28:04.514Z,100121.31
2023-01-19T02:30:30.982Z,100121.28
2023-01-19T02:32:57.495Z,100134.91
2023-01-19T02:35:24.930Z,100125.59
2023-01-19T02:37:52.993Z,100130.16
2023-01-19T02:40:21.986Z,100140.59
2023-01-19T02:42:55.898Z,100143.50
2023-01-19T02:45:23.211Z,100151.28
2023-01-19T02:47:52.663Z,100159.19
2023-01-19T02:50:35.960Z,100157.25
2023-01-19T02:53:31.206Z,100154.72
2023-01-19T02:56:15.480Z,100169.66
2023-01-19T02:58:53.759Z,100163.34
2023-01-19T03:01:46.926Z,100177.34
2023-01-19T03:04:42.460Z,100174.38
2023-01-19T03:07:14.252Z,100178.03
2023-01-19T03:09:53.011Z,100181.94
2023-01-19T03:12:38.166Z,100180.03
2023-01-19T03:15:33.508Z,100181.47
2023-01-19T03:18:02.088Z,100183.00
2023-01-19T03:20:28.771Z,100183.75
2023-01-19T03:23:09.960Z,100170.16
2023-01-19T03:25:40.524Z,100174.69
2023-01-19T03:28:06.970Z,100163.47
2023-01-19T03:30:40.504Z,100172.31
2023-01-19T03:33:17.386Z,100193.91
2023-01-19T03:35:49.519Z,100185.88
2023-01-19T03:38:18.710Z,100193.38
2023-01-19T03:40:45.994Z,100192.97
2023-01-19T03:43:15.336Z,100191.63
2023-01-19T03:45:43.188Z,100194.19
2023-01-19T03:48:10.336Z,100196.22
2023-01-19T03:50:36.928Z,100185.75
2023-01-19T03:53:07.868Z,100209.38
2023-01-19T03:55:35.549Z,100211.75
2023-01-19T03:58:02.259Z,100204.03
2023-01-19T04:00:28.741Z,100226.53
2023-01-19T04:02:55.621Z,100216.19
2023-01-19T04:05:22.409Z,100213.13
2023-01-19T04:07:52.824Z,100212.72
2023-01-19T04:10:19.992Z,100217.72
2023-01-19T04:12:46.495Z,100223.63
2023-01-19T04:15:13.532Z,100222.75
2023-01-19T04:17:40.767Z,100222.34
2023-01-19T04:20:08.171Z,100212.63
2023-01-19T04:22:35.106Z,100211.47
2023-01-19T04:25:01.405Z,100222.22
2023-01-19T04:27:27.732Z,100203.66
2023-01-19T04:29:54.129Z,100212.97
2023-01-19T04:32:20.506Z,100212.31
2023-01-19T04:34:46.942Z,100218.50
2023-01-19T04:37:13.237Z,100228.53
2023-01-19T04:39:39.552Z,100226.94
2023-01-19T04:42:05.965Z,100230.56
2023-01-19T04:44:32.275Z,100238.47
2023-01-19T04:46:58.622Z,100233.66
2023-01-19T04:49:24.991Z,100244.13
2023-01-19T04:51:54.415Z,100236.88
2023-01-19T04:54:20.984Z,100236.66
2023-01-19T04:56:48.111Z,100249.03
2023-01-19T04:59:14.928Z,100249.22
2023-01-19T05:01:41.310Z,100247.44
2023-01-19T05:04:07.641Z,100249.34
2023-01-19T05:06:34.501Z,100262.38
2023-01-19T05:09:00.885Z,100258.34
2023-01-19T05:11:27.235Z,100265.81
2023-01-19T05:13:53.571Z,100277.03
2023-01-19T05:16:19.957Z,100280.94
2023-01-19T05:18:46.341Z,100281.47
2023-01-19T05:21:12.709Z,100279.56
2023-01-19T05:23:39.056Z,100278.72
2023-01-19T05:26:05.494Z,100282.25
2023-01-19T05:28:32.857Z,100281.81
2023-01-19T05:30:59.422Z,100283.94
2023-01-19T05:33:25.826Z,100283.72
2023-01-19T05:35:53.931Z,100287.78
2023-01-19T05:38:34.362Z,100280.63
2023-01-19T05:41:01.972Z,100287.91
2023-01-19T05:43:28.297Z,100287.03
2023-01-19T05:45:54.902Z,100292.78
2023-01-19T05:48:21.313Z,100292.38
2023-01-19T05:50:47.655Z,100298.34
2023-01-19T05:53:14.007Z,100298.06
2023-01-19T05:55:40.410Z,100304.78
2023-01-19T05:58:06.914Z,100315.25
2023-01-19T06:00:34.745Z,100311.63
2023-01-19T06:03:02.526Z,100309.56
2023-01-19T06:05:29.857Z,100311.31
2023-01-19T06:07:56.940Z,100311.72
2023-01-19T06:10:23.503Z,100312.47
2023-01-19T06:12:52.283Z,100320.28
2023-01-19T06:15:18.753Z,100318.13
2023-01-19T06:17:45.297Z,100320.03
2023-01-19T06:20:11.999Z,100329.44
2023-01-19T06:22:38.375Z,100319.53
2023-01-19T06:25:05.665Z,100343.03
2023-01-19T06:27:32.034Z,100336.41
2023-01-19T06:29:58.432Z,100343.22
2023-01-19T06:32:24.803Z,100345.34
2023-01-19T06:34:53.260Z,100349.66
2023-01-19T06:37:20.399Z,100353.81
2023-01-19T06:39:47.026Z,100364.69
2023-01-19T06:42:13.593Z,100362.47
2023-01-19T06:44:39.930Z,100373.88
2023-01-19T06:47:15.231Z,100368.84
2023-01-19T06:49:42.799Z,100375.84
2023-01-19T06:52:10.350Z,100392.91
2023-01-19T06:54:37.085Z,100392.13
2023-01-19T06:57:04.491Z,100391.34
2023-01-19T06:59:31.684Z,100401.25
2023-01-19T07:01:58.366Z,100402.47
2023-01-19T07:04:27.484Z,100406.00
2023-01-19T07:06:54.033Z,100414.13
2023-01-19T07:09:20.580Z,100417.59
2023-01-19T07:11:47.660Z,100414.94
2023-01-19T07:14:14.156Z,100406.09
2023-01-19T07:16:40.539Z,100413.03
2023-01-19T07:19:06.825Z,100421.69
2023-01-19T07:21:33.112Z,100429.03
2023-01-19T07:23:59.440Z,100426.91
2023-01-19T07:26:25.927Z,100435.72
2023-01-19T07:28:52.339Z,100444.41
2023-01-19T07:31:19.331Z,100448.13
2023-01-19T07:33:46.616Z,100452.50
2023-01-19T07:36:13.537Z,100456.25
2023-01-19T07:38:39.883Z,100456.69
2023-01-19T07:41:09.186Z,100452.00
2023-01-19T07:43:35.876Z,100465.63
2023-01-19T07:46:04.377Z,100461.81
2023-01-19T07:48:30.821Z,100465.81
2023-01-19T07:51:01.654Z,100468.16
2023-01-19T07:53:28.082Z,100476.66
2023-01-19T07:55:56.331Z,100475.13
2023-01-19T07:58:23.934Z,100478.94
2023-01-19T08:00:50.449Z,100481.50
2023-01-19T08:03:18.444Z,100481.41
2023-01-19T08:05:45.333Z,100494.16
2023-01-19T08:08:11.661Z,100486.66
2023-01-19T08:10:38.372Z,100502.03
2023-01-19T08:13:06.169Z,100495.16
2023-01-19T08:15:32.562Z,100506.88
2023-01-19T08:18:01.136Z,100511.16
2023-01-19T08:20:28.686Z,100517.00
2023-01-19T08:22:55.804Z,100517.28
2023-01-19T08:25:22.152Z,100520.63
2023-01-19T08:27:50.966Z,100527.28
2023-01-19T08:30:21.255Z,100521.72
2023-01-19T08:32:47.550Z,100536.59
2023-01-19T08:35:14.008Z,100530.16
2023-01-19T08:37:41.032Z,100527.38
2023-01-19T08:40:10.629Z,100533.00
2023-01-19T08:42:37.140Z,100538.44
2023-01-19T08:45:03.877Z,100543.47
2023-01-19T08:47:30.317Z,100540.78
2023-01-19T08:49:56.706Z,100542.94
2023-01-19T08:52:23.154Z,100547.56
2023-01-19T08:54:49.593Z,100550.75
2023-01-19T08:57:15.975Z,100553.78
2023-01-19T08:59:42.416Z,100555.06
2023-01-19T09:02:10.707Z,100556.56
2023-01-19T09:04:37.082Z,100552.09
2023-01-19T09:09:35.833Z,100562.69
2023-01-19T09:12:02.155Z,100574.22
2023-01-19T09:14:28.480Z,100574.38
2023-01-19T09:16:55.177Z,100568.06
2023-01-19T09:19:21.588Z,100568.97
2023-01-19T09:21:47.928Z,100572.50
2023-01-19T09:24:14.229Z,100573.34
2023-01-19T09:26:40.550Z,100582.84
2023-01-19T09:29:06.859Z,100572.59
2023-01-19T09:31:33.375Z,100589.13
2023-01-19T09:33:59.846Z,100575.72
2023-01-19T09:36:28.685Z,100572.19
2023-01-19T09:38:55.226Z,100570.31
2023-01-19T09:41:22.544Z,100582.91
2023-01-19T09:44:00.344Z,100579.38
2023-01-19T09:46:37.604Z,100570.22
2023-01-19T09:49:11.885Z,100584.72
2023-01-19T09:51:43.757Z,100578.53
2023-01-19T09:54:22.183Z,100570.06
2023-01-19T09:56:52.406Z,100578.22
2023-01-19T09:59:23.126Z,100576.41
2023-01-19T10:02:27.186Z,100579.19
2023-01-19T10:04:53.457Z,100580.81
2023-01-19T10:07:47.575Z,100587.16
2023-01-19T10:10:20.276Z,100587.34
2023-01-19T10:13:10.071Z,100592.13
2023-01-19T10:15:46.665Z,100590.06
2023-01-19T10:18:22.493Z,100590.34
2023-01-19T10:20:53.228Z,100598.19
2023-01-19T10:23:23.705Z,100597.59
2023-01-19T10:25:50.492Z,100604.91
2023-01-19T10:28:23.260Z,100596.75
2023-01-19T10:30:51.481Z,100597.94
2023-01-19T10:33:18.018Z,100604.03
2023-01-19T10:35:44.399Z,100600.91
2023-01-19T10:38:15.495Z,100609.13
2023-01-19T10:40:59.921Z,100600.78
2023-01-19T10:43:38.837Z,100602.69
2023-01-19T10:46:07.764Z,100605.34
2023-01-19T10:48:42.221Z,100611.00
2023-01-19T10:51:10.680Z,100608.09
2023-01-19T10:53:37.675Z,100608.13
2023-01-19T10:56:24.495Z,100613.06
2023-01-19T10:58:51.436Z,100607.66
2023-01-19T11:01:26.546Z,100611.66
2023-01-19T11:03:54.299Z,100596.94
2023-01-19T11:06:28.304Z,100612.69
2023-01-19T11:09:15.472Z,100613.88
2023-01-19T11:11:44.270Z,100608.44
2023-01-19T11:14:13.892Z,100606.34
2023-01-19T11:16:45.038Z,100613.16
2023-01-19T11:19:30.093Z,100611.13
2023-01-19T11:22:17.998Z,100611.47
2023-01-19T11:24:44.519Z,100615.84
2023-01-19T11:27:10.836Z,100610.34
2023-01-19T11:29:38.609Z,100611.22
2023-01-19T11:32:19.295Z,100616.16
2023-01-19T11:34:45.655Z,100619.94
2023-01-19T11:37:18.124Z,100609.41
2023-01-19T11:39:54.804Z,100622.91
2023-01-19T11:42:21.968Z,100612.38
2023-01-19T11:45:00.098Z,100607.66
2023-01-19T11:47:35.693Z,100598.44
2023-01-19T11:50:07.339Z,100595.19
2023-01-19T11:52:42.981Z,100600.44
2023-01-19T11:55:33.598Z,100596.75
2023-01-19T11:58:00.460Z,100604.38
2023-01-19T12:00:33.617Z,100602.34
2023-01-19T12:03:20.512Z,100605.38
2023-01-19T12:05:50.978Z,100614.22
2023-01-19T12:08:23.169Z,100604.81
2023-01-19T12:10:51.725Z,100615.22
2023-01-19T12:13:27.937Z,100610.78
2023-01-19T12:16:08.596Z,100601.84
2023-01-19T12:18:45.248Z,100599.78
2023-01-19T12:21:11.579Z,100603.69
2023-01-19T12:23:48.161Z,100606.22
2023-01-19T12:26:35.630Z,100600.06
2023-01-19T12:29:13.141Z,100596.91
2023-01-19T12:31:41.024Z,100598.06
2023-01-19T12:34:25.347Z,100603.31
2023-01-19T12:36:52.761Z,100601.06
2023-01-19T12:39:23.413Z,100600.03
2023-01-19T12:42:05.470Z,100599.22
2023-01-19T12:44:33.294Z,100601.06
2023-01-19T12:47:15.006Z,100604.88
2023-01-19T12:49:47.764Z,100611.03
2023-01-19T12:52:37.253Z,100610.53
2023-01-19T12:55:15.366Z,100610.81
2023-01-19T12:57:51.981Z,100614.53
2023-01-19T13:00:24.276Z,100620.31
2023-01-19T13:02:51.975Z,100616.28
2023-01-19T13:05:21.439Z,100623.06
2023-01-19T13:08:03.171Z,100609.78
2023-01-19T13:11:00.808Z,100617.25
2023-01-19T13:13:36.858Z,100620.75
2023-01-19T13:16:18.667Z,100620.22
2023-01-19T13:18:57.263Z,100614.25
2023-01-19T13:21:29.920Z,100620.28
2023-01-19T13:23:59.166Z,100626.53
2023-01-19T13:26:28.574Z,100622.47
2023-01-19T13:28:58.475Z,100626.78
2023-01-19T13:31:25.448Z,100620.88
2023-01-19T13:33:55.293Z,100630.53
2023-01-19T13:36:44.021Z,100635.47
2023-01-19T13:39:35.423Z,100642.09
2023-01-19T13:42:29.468Z,100636.47
2023-01-19T13:45:00.085Z,100639.19
2023-01-19T13:47:39.243Z,100633.00
2023-01-19T13:50:06.260Z,100639.75
2023-01-19T13:52:32.632Z,100634.09
2023-01-19T13:55:03.353Z,100648.44
2023-01-19T13:57:39.735Z,100646.41
2023-01-19T14:00:23.216Z,100641.94
2023-01-19T14:03:04.074Z,100643.94
2023-01-19T14:05:41.005Z,100651.25
2023-01-19T14:08:10.664Z,100654.38
2023-01-19T14:10:55.387Z,100654.91
2023-01-19T14:13:23.403Z,100658.44
2023-01-19T14:16:06.893Z,100675.75
2023-01-19T14:18:37.723Z,100673.44
2023-01-19T14:21:08.560Z,100678.59
2023-01-19T14:23:53.880Z,100675.81
2023-01-19T14:26:44.519Z,100676.53
2023-01-19T14:29:37.413Z,100677.66
2023-01-19T14:32:21.883Z,100681.16
2023-01-19T14:35:10.648Z,100688.94
2023-01-19T14:37:45.028Z,100687.66
2023-01-19T14:40:11.321Z,100696.44
2023-01-19T14:42:45.353Z,100684.31
2023-01-19T14:45:21.025Z,100689.59
2023-01-19T14:47:56.329Z,100693.63
2023-01-19T14:50:27.486Z,100687.75
2023-01-19T14:53:12.618Z,100685.47
2023-01-19T14:55:54.907Z,100697.28
2023-01-19T14:58:24.186Z,100694.63
2023-01-19T15:00:52.590Z,100697.59
2023-01-19T15:03:18.943Z,100694.13
2023-01-19T15:05:46.873Z,100701.91
2023-01-19T15:08:29.927Z,100696.50
2023-01-19T15:10:57.791Z,100699.06
2023-01-19T15:13:27.104Z,100695.31
2023-01-19T15:15:53.679Z,100693.91
2023-01-19T15:18:24.166Z,100703.59
2023-01-19T15:20:50.569Z,100702.84
2023-01-19T15:23:16.936Z,100706.91
2023-01-19T15:25:43.365Z,100702.38
2023-01-19T15:28:20.057Z,100706.75
2023-01-19T15:30:46.374Z,100716.16
2023-01-19T15:33:19.543Z,100723.34
2023-01-19T15:35:45.889Z,100724.03
2023-01-19T15:38:14.281Z,100723.78
2023-01-19T15:40:40.695Z,100732.38
2023-01-19T15:43:09.745Z,100736.38
2023-01-19T15:45:51.180Z,100741.34
2023-01-19T15:48:17.556Z,100738.09
2023-01-19T15:50:45.029Z,100742.94
2023-01-19T15:53:17.462Z,100743.28
2023-01-19T15:55:44.566Z,100743.34
2023-01-19T15:58:13.007Z,100745.84
2023-01-19T16:00:40.272Z,100742.00
2023-01-19T16:03:07.171Z,100751.56
2023-01-19T16:05:42.847Z,100754.91
2023-01-19T16:08:11.235Z,100758.44
2023-01-19T16:10:37.909Z,100760.25
2023-01-19T16:13:04.298Z,100759.09
2023-01-19T16:15:30.748Z,100761.34
2023-01-19T16:17:57.104Z,100759.44
2023-01-19T16:20:23.465Z,100766.09
2023-01-19T16:22:49.774Z,100764.47
2023-01-19T16:25:16.091Z,100764.91
2023-01-19T16:27:42.454Z,100773.59
2023-01-19T16:30:11.802Z,100777.75
2023-01-19T16:32:38.619Z,100780.00
2023-01-19T16:35:05.536Z,100777.50
2023-01-19T16:37:31.854Z,100793.25
2023-01-19T16:39:58.173Z,100784.66
2023-01-19T16:42:24.851Z,100792.69
2023-01-19T16:44:53.743Z,100787.63
2023-01-19T16:47:20.124Z,100792.22
2023-01-19T16:49:46.499Z,100804.34
2023-01-19T16:52:12.863Z,100799.84
2023-01-19T16:54:41.979Z,100808.69
2023-01-19T16:57:09.574Z,100808.34
2023-01-19T16:59:36.333Z,100805.28
2023-01-19T17:02:02.965Z,100814.56
2023-01-19T17:04:29.409Z,100810.06
2023-01-19T17:06:56.883Z,100808.84
2023-01-19T17:09:23.278Z,100807.41
2023-01-19T17:11:49.725Z,100816.56
2023-01-19T17:14:18.567Z,100823.53
2023-01-19T17:16:45.020Z,100821.34
2023-01-19T17:19:14.534Z,100823.97
2023-01-19T17:21:41.034Z,100831.94
2023-01-19T17:24:07.556Z,100836.25
2023-01-19T17:26:34.869Z,100842.22
2023-01-19T17:29:02.862Z,100838.13
2023-01-19T17:31:29.925Z,100841.09
2023-01-19T17:33:56.409Z,100842.81
2023-01-19T17:36:25.718Z,100848.63
2023-01-19T17:38:53.556Z,100848.53
2023-01-19T17:41:22.845Z,100849.44
2023-01-19T17:43:51.495Z,100858.88
2023-01-19T17:46:20.287Z,100853.78
2023-01-19T17:49:16.035Z,100856.06
2023-01-19T17:51:42.420Z,100854.88
2023-01-19T17:54:08.955Z,100846.56
2023-01-19T17:56:35.331Z,100857.25
2023-01-19T17:59:02.154Z,100853.19
2023-01-19T18:01:32.945Z,100854.50
2023-01-19T18:04:01.813Z,100854.50
2023-01-19T18:06:29.228Z,100854.25
2023-01-19T18:08:58.416Z,100862.06
2023-01-19T18:11:26.007Z,100870.56
2023-01-19T18:13:54.978Z,100868.59
2023-01-19T18:16:24.333Z,100867.13
2023-01-19T18:18:52.137Z,100870.66
2023-01-19T18:21:19.154Z,100866.53
2023-01-19T18:23:45.725Z,100874.97
2023-01-19T18:26:14.726Z,100884.59
2023-01-19T18:28:41.107Z,100887.34
2023-01-19T18:31:09.131Z,100881.94
2023-01-19T18:33:35.985Z,100888.28
2023-01-19T18:36:03.715Z,100885.09
2023-01-19T18:38:30.051Z,100881.25
2023-01-19T18:41:10.771Z,100884.22
2023-01-19T18:43:37.779Z,100885.69
2023-01-19T18:46:04.992Z,100890.53
2023-01-19T18:48:31.446Z,100881.72
2023-01-19T18:50:58.169Z,100880.09
2023-01-19T18:53:24.762Z,100878.28
2023-01-19T18:55:56.609Z,100883.13
2023-01-19T18:58:23.985Z,100882.03
2023-01-19T19:00:51.125Z,100880.03
2023-01-19T19:03:17.544Z,100902.66
2023-01-19T19:05:43.986Z,100896.69
2023-01-19T19:08:10.669Z,100898.94
2023-01-19T19:10:37.446Z,100906.06
2023-01-19T19:13:03.839Z,100900.69
2023-01-19T19:15:32.572Z,100912.69
2023-01-19T19:17:59.356Z,100916.91
2023-01-19T19:20:26.312Z,100914.06
2023-01-19T19:22:52.748Z,100915.13
2023-01-19T19:25:19.064Z,100919.59
2023-01-19T19:27:45.422Z,100917.78
2023-01-19T19:30:13.128Z,100928.09
2023-01-19T19:32:39.782Z,100931.81
2023-01-19T19:35:06.495Z,100927.22
2023-01-19T19:37:32.805Z,100929.56
2023-01-19T19:39:59.112Z,100929.88
2023-01-19T19:42:25.534Z,100942.53
2023-01-19T19:44:51.889Z,100930.75
2023-01-19T19:47:20.204Z,100942.78
2023-01-19T19:49:46.607Z,100946.75
2023-01-19T19:52:13.176Z,100946.47
2023-01-19T19:54:39.467Z,100956.91
2023-01-19T19:57:05.882Z,100946.91
2023-01-19T19:59:32.276Z,100957.50
2023-01-19T20:01:58.681Z,100957.81
2023-01-19T20:04:25.030Z,100965.03
2023-01-19T20:06:51.372Z,100961.06
2023-01-19T20:09:17.712Z,100963.72
2023-01-19T20:11:45.673Z,100963.72
2023-01-19T20:14:14.023Z,100968.28
2023-01-19T20:16:40.708Z,100971.66
2023-01-19T20:19:07.771Z,100970.81
2023-01-19T20:21:36.772Z,100974.31
2023-01-19T20:24:09.599Z,100990.25
2023-01-19T20:26:40.364Z,100995.59
2023-01-19T20:29:06.807Z,101008.00
2023-01-19T20:31:41.424Z,100994.25
2023-01-19T20:34:11.349Z,101006.47
2023-01-19T20:36:37.854Z,101010.28
2023-01-19T20:39:04.812Z,101009.41
2023-01-19T20:41:31.153Z,101008.56
2023-01-19T20:43:57.493Z,101013.16
2023-01-19T20:46:23.797Z,101017.34
2023-01-19T20:48:50.427Z,101019.00
2023-01-19T20:51:16.741Z,101034.72
2023-01-19T20:53:43.030Z,101034.47
2023-01-19T20:56:14.152Z,101045.03
2023-01-19T20:58:41.436Z,101044.44
2023-01-19T21:01:13.988Z,101041.72
2023-01-19T21:03:40.626Z,101044.44
2023-01-19T21:06:07.521Z,101042.50
2023-01-19T21:08:33.976Z,101043.53
2023-01-19T21:11:00.431Z,101030.59
2023-01-19T21:13:26.913Z,101040.50
2023-01-19T21:15:53.360Z,101043.84
2023-01-19T21:18:20.059Z,101031.78
2023-01-19T21:20:49.443Z,101021.28
2023-01-19T21:23:16.295Z,101027.38
2023-01-19T21:25:53.895Z,101028.84
2023-01-19T21:28:20.635Z,101036.09
2023-01-19T21:30:47.094Z,101044.94
2023-01-19T21:33:13.536Z,101045.97
2023-01-19T21:35:40.160Z,101052.34
2023-01-19T21:38:06.532Z,101050.47
2023-01-19T21:40:32.974Z,101053.56
2023-01-19T21:42:59.521Z,101056.94
2023-01-19T21:45:25.968Z,101055.53
2023-01-19T21:47:52.367Z,101055.75
2023-01-19T21:50:18.873Z,101058.22
2023-01-19T21:52:45.232Z,101054.88
2023-01-19T21:55:11.850Z,101059.50
2023-01-19T21:57:38.424Z,101069.78
2023-01-19T22:00:05.901Z,101074.00
2023-01-19T22:02:38.597Z,101075.53
2023-01-19T22:05:05.892Z,101081.06
2023-01-19T22:07:32.604Z,101079.81
2023-01-19T22:09:58.970Z,101080.84
2023-01-19T22:12:25.585Z,101083.13
2023-01-19T22:14:52.434Z,101091.50
2023-01-19T22:17:18.865Z,101102.53
2023-01-19T22:19:45.333Z,101099.41
2023-01-19T22:22:11.629Z,101098.38
2023-01-19T22:24:38.170Z,101102.31
2023-01-19T22:27:04.531Z,101104.41
2023-01-19T22:29:30.840Z,101108.75
2023-01-19T22:31:57.198Z,101112.34
2023-01-19T22:34:23.524Z,101111.72
2023-01-19T22:36:49.878Z,101120.50
2023-01-19T22:39:16.195Z,101115.72
2023-01-19T22:41:45.631Z,101116.56
2023-01-19T22:44:21.918Z,101115.09
2023-01-19T22:46:50.040Z,101123.88
2023-01-19T22:49:18.336Z,101114.16
2023-01-19T22:51:45.444Z,101112.97
2023-01-19T22:54:12.405Z,101113.53
2023-01-19T22:56:39.901Z,101109.53
2023-01-19T22:59:07.245Z,101117.28
2023-01-19T23:01:39.706Z,101114.38
2023-01-19T23:04:07.636Z,101113.28
2023-01-19T23:06:36.045Z,101119.25
2023-01-19T23:09:05.538Z,101121.81
2023-01-19T23:11:35.929Z,101121.75
2023-01-19T23:14:03.550Z,101121.66
2023-01-19T23:16:30.036Z,101119.47
2023-01-19T23:18:58.344Z,101125.03
2023-01-19T23:21:27.386Z,101120.31
2023-01-19T23:24:01.648Z,101119.63
2023-01-19T23:26:29.585Z,101118.63
2023-01-19T23:29:00.942Z,101128.94
2023-01-19T23:31:32.948Z,101122.69
2023-01-19T23:34:02.213Z,101122.69
2023-01-19T23:36:31.071Z,101125.03
2023-01-19T23:39:00.217Z,101118.88
2023-01-19T23:41:29.037Z,101124.81
2023-01-19T23:43:55.484Z,101120.22
2023-01-19T23:46:22.147Z,101133.53
2023-01-19T23:48:49.051Z,101136.91
2023-01-19T23:51:18.147Z,101126.66
2023-01-19T23:53:44.969Z,101129.25
2023-01-19T23:56:14.245Z,101126.22
2023-01-19T23:58:40.676Z,101137.59
